Time;durP1;ratioP1;P1;durP2;ratioP2;P2;SDS_P1;SDS_P2;PMS_P1;PMS_P2;Temp;Humidity;BMP_temperature;BMP_pressure;BME280_temperature;BME280_humidity;BME280_pressure;Samples;Min_cycle;Max_cycle;Signal;HPM_P1;HPM_P2
2022/08/19 00:01:49;;;;;;;6.88;3.40;;;;;;;19.83;76.08;99959.69;5034654;28;20516;-78
2022/08/19 00:04:17;;;;;;;4.65;2.50;;;;;;;19.81;76.22;99959.28;5034718;28;20025;-78
2022/08/19 00:06:45;;;;;;;5.35;2.78;;;;;;;19.91;75.95;99954.91;5034657;28;20033;-77
2022/08/19 00:09:14;;;;;;;6.65;3.13;;;;;;;19.82;76.12;99960.88;5034604;28;20034;-78
2022/08/19 00:11:40;;;;;;;5.63;3.30;;;;;;;19.78;76.54;99963.63;5034527;28;20029;-78
2022/08/19 00:14:09;;;;;;;5.55;2.63;;;;;;;19.77;76.40;99964.03;5034575;28;20075;-78
2022/08/19 00:16:34;;;;;;;7.47;2.92;;;;;;;19.77;76.47;99966.78;5034673;28;20060;-78
2022/08/19 00:19:00;;;;;;;6.18;3.20;;;;;;;20.10;75.41;99971.78;5034414;28;20030;-78
2022/08/19 00:21:26;;;;;;;6.63;3.17;;;;;;;20.21;74.96;99965.41;5035006;28;20037;-78
2022/08/19 00:23:53;;;;;;;7.28;3.25;;;;;;;20.22;74.70;99964.22;5034734;28;20021;-78
2022/08/19 00:26:18;;;;;;;5.20;3.00;;;;;;;20.17;74.98;99964.66;5034652;28;20025;-78
2022/08/19 00:28:43;;;;;;;5.05;3.10;;;;;;;20.11;75.23;99961.50;5016547;28;20071;-78
2022/08/19 00:31:09;;;;;;;7.05;3.47;;;;;;;20.07;75.21;99963.50;5034581;28;20033;-78
2022/08/19 00:33:35;;;;;;;6.07;3.55;;;;;;;19.83;76.31;99954.94;5034510;28;20033;-78
2022/08/19 00:36:04;;;;;;;10.10;3.72;;;;;;;19.67;76.71;99960.13;5034127;28;20037;-78
2022/08/19 00:38:30;;;;;;;8.95;3.67;;;;;;;19.55;77.37;99951.50;5034018;28;20113;-78
2022/08/19 00:40:55;;;;;;;8.10;3.97;;;;;;;19.48;77.52;99949.50;5034370;28;20025;-78
2022/08/19 00:43:22;;;;;;;;;;;;;;;19.43;77.84;99950.69;5034979;28;20032;-78
2022/08/19 00:45:49;;;;;;;6.03;3.00;;;;;;;19.81;76.60;99953.75;5034303;28;20006;-78
2022/08/19 00:48:16;;;;;;;5.82;3.13;;;;;;;19.80;76.41;99946.66;5034683;28;20117;-77
2022/08/19 00:50:43;;;;;;;6.18;3.30;;;;;;;19.67;76.74;99956.59;5034050;28;20077;-77
2022/08/19 00:53:15;;;;;;;6.47;3.40;;;;;;;19.55;77.29;99957.81;5033965;28;20033;-78
2022/08/19 00:55:44;;;;;;;6.47;3.33;;;;;;;19.47;77.68;99956.19;5034305;28;20055;-78
2022/08/19 00:58:13;;;;;;;5.97;3.25;;;;;;;19.33;78.26;99954.28;5034036;28;20025;-78
2022/08/19 01:00:39;;;;;;;5.68;3.22;;;;;;;19.06;79.53;99953.13;5034057;28;20037;-78
2022/08/19 01:03:10;;;;;;;6.80;3.45;;;;;;;19.03;79.39;99948.41;5033696;28;20448;-78
2022/08/19 01:05:37;;;;;;;8.80;3.50;;;;;;;18.98;79.95;99948.78;5033770;28;20029;-78
2022/08/19 01:08:04;;;;;;;6.80;3.38;;;;;;;19.21;78.99;99954.69;5033761;28;20033;-79
2022/08/19 01:10:33;;;;;;;5.60;3.17;;;;;;;19.05;79.39;99940.53;5034003;28;20061;-78
2022/08/19 01:13:01;;;;;;;6.28;3.22;;;;;;;19.08;79.61;99943.25;5016118;28;20091;-78
2022/08/19 01:15:32;;;;;;;5.68;3.22;;;;;;;19.10;79.54;99948.38;5033480;28;20033;-78
2022/08/19 01:18:01;;;;;;;5.68;3.28;;;;;;;18.95;79.70;99947.59;5033504;28;20029;-78
2022/08/19 01:20:26;;;;;;;5.80;3.00;;;;;;;18.94;80.18;99952.34;5033476;28;20033;-78
2022/08/19 01:22:58;;;;;;;6.78;3.60;;;;;;;18.91;80.29;99955.09;5033422;28;20029;-78
2022/08/19 01:25:31;;;;;;;5.80;3.15;;;;;;;18.77;80.71;99950.38;5033664;28;20025;-79
2022/08/19 01:27:57;;;;;;;5.97;3.33;;;;;;;18.66;81.23;99952.34;5034001;28;20416;-78
2022/08/19 01:30:33;;;;;;;7.03;3.60;;;;;;;18.71;81.05;99953.94;5033426;28;20021;-78
2022/08/19 01:33:00;;;;;;;6.25;3.17;;;;;;;18.61;81.76;99958.22;5033111;28;20026;-78
2022/08/19 01:35:31;;;;;;;8.02;4.35;;;;;;;18.59;81.61;99955.06;5033184;28;20037;-79
2022/08/19 01:38:01;;;;;;;7.10;4.13;;;;;;;18.39;82.75;99942.84;5033684;28;20025;-79
2022/08/19 01:40:31;;;;;;;6.45;3.50;;;;;;;18.32;82.94;99943.63;5033031;28;20484;-79
2022/08/19 01:42:57;;;;;;;7.15;3.88;;;;;;;18.30;82.95;99957.75;5033478;28;20380;-78
2022/08/19 01:45:25;;;;;;;8.48;4.18;;;;;;;18.20;83.22;99947.53;5032857;28;20033;-79
2022/08/19 01:47:50;;;;;;;6.00;3.50;;;;;;;18.18;83.70;99952.63;5015166;28;20542;-79
2022/08/19 01:50:16;;;;;;;7.13;3.70;;;;;;;18.21;83.41;99951.84;5033209;28;20079;-79
2022/08/19 01:52:43;;;;;;;5.78;3.60;;;;;;;18.63;81.73;99947.59;5032977;28;20124;-79
2022/08/19 01:55:12;;;;;;;6.57;3.60;;;;;;;18.66;81.73;99940.53;5032946;28;20048;-80
2022/08/19 01:57:40;;;;;;;7.20;4.15;;;;;;;18.39;82.63;99945.59;5015162;28;20037;-80
2022/08/19 02:00:11;;;;;;;7.00;3.50;;;;;;;18.29;82.98;99945.16;5033059;28;20132;-79
2022/08/19 02:02:36;;;;;;;7.45;3.90;;;;;;;18.20;83.55;99947.53;5033151;28;20029;-79
2022/08/19 02:05:03;;;;;;;6.72;3.63;;;;;;;18.19;83.63;99948.72;5032773;28;20124;-79
2022/08/19 02:07:29;;;;;;;5.75;3.03;;;;;;;18.17;83.93;99953.03;5032940;28;20037;-80
2022/08/19 02:09:55;;;;;;;8.20;3.50;;;;;;;18.19;83.85;99945.16;5032703;28;20076;-79
2022/08/19 02:12:20;;;;;;;5.78;3.45;;;;;;;18.24;83.37;99942.81;5032353;28;20060;-79
2022/08/19 02:14:46;;;;;;;7.65;3.83;;;;;;;18.49;82.50;99933.81;5032530;28;20417;-79
2022/08/19 02:17:11;;;;;;;6.55;3.83;;;;;;;18.42;83.04;99933.78;5032536;28;20032;-80
2022/08/19 02:19:37;;;;;;;;;;;;;;;18.37;83.03;99923.94;5032369;28;20146;-79
2022/08/19 02:22:02;;;;;;;6.20;3.40;;;;;;;18.37;82.97;99934.16;5032229;28;20332;-78
2022/08/19 02:24:27;;;;;;;5.80;3.28;;;;;;;18.36;82.95;99932.59;5032391;28;20033;-78
2022/08/19 02:26:53;;;;;;;;;;;;;;;18.41;82.32;99935.75;5032927;28;20055;-79
2022/08/19 02:29:18;;;;;;;6.53;2.97;;;;;;;18.60;82.22;99945.59;5032423;28;20331;-79
2022/08/19 02:31:43;;;;;;;;;;;;;;;18.60;81.94;99948.38;5033076;28;20306;-79
2022/08/19 02:34:09;;;;;;;6.00;3.30;;;;;;;18.47;82.34;99945.19;5032599;28;19909;-80
2022/08/19 02:36:34;;;;;;;8.23;4.00;;;;;;;18.45;82.79;99947.56;5032179;28;20083;-79
2022/08/19 02:38:59;;;;;;;6.30;3.55;;;;;;;18.40;83.30;99949.91;5032970;28;20057;-80
2022/08/19 02:41:27;;;;;;;;;;;;;;;18.41;82.87;99945.97;5033013;28;20025;-79
2022/08/19 02:43:54;;;;;;;6.22;3.60;;;;;;;18.45;82.66;99957.78;5032341;28;19909;-79
2022/08/19 02:46:26;;;;;;;6.90;3.88;;;;;;;18.46;82.68;99943.63;5032225;28;20034;-79
2022/08/19 02:48:55;;;;;;;6.93;4.03;;;;;;;18.44;82.66;99951.50;5032109;28;20077;-79
2022/08/19 02:51:31;;;;;;;7.95;4.15;;;;;;;18.46;82.72;99937.31;5032531;28;20423;-79
2022/08/19 02:53:57;;;;;;;9.32;3.70;;;;;;;18.49;82.60;99944.84;5032321;28;20029;-79
2022/08/19 02:56:24;;;;;;;;;;;;;;;18.55;82.33;99948.75;5032837;28;20452;-79
2022/08/19 02:58:49;;;;;;;6.40;3.50;;;;;;;18.56;82.11;99951.13;5032010;28;19940;-79
2022/08/19 03:01:30;;;;;;;7.13;3.42;;;;;;;18.63;82.07;99953.13;5031926;28;20469;-79
2022/08/19 03:03:59;;;;;;;6.50;3.13;;;;;;;18.71;81.66;99948.41;5031856;28;20029;-79
2022/08/19 03:06:24;;;;;;;8.48;3.63;;;;;;;18.67;81.81;99942.91;5032153;28;20037;-79
2022/08/19 03:08:50;;;;;;;8.50;4.40;;;;;;;18.64;81.77;99951.94;5031909;28;20033;-79
2022/08/19 03:11:24;;;;;;;6.57;3.85;;;;;;;18.63;81.71;99942.09;5032077;28;20075;-79
2022/08/19 03:13:50;;;;;;;6.43;3.88;;;;;;;18.60;81.81;99951.13;5032030;28;20094;-79
2022/08/19 03:16:17;;;;;;;6.05;3.60;;;;;;;18.67;81.57;99948.41;5031734;28;20041;-79
2022/08/19 03:18:43;;;;;;;6.40;3.30;;;;;;;18.66;81.84;99940.53;5031976;28;20508;-79
2022/08/19 03:21:08;;;;;;;7.03;3.63;;;;;;;18.61;81.89;99947.19;5031762;28;20140;-79
2022/08/19 03:23:35;;;;;;;5.43;3.10;;;;;;;18.60;81.94;99946.41;5032076;28;20357;-80
2022/08/19 03:26:05;;;;;;;7.78;4.03;;;;;;;18.54;81.86;99945.22;5031581;28;20052;-79
2022/08/19 03:28:31;;;;;;;7.75;3.67;;;;;;;18.55;82.02;99943.25;5031643;28;20026;-79
2022/08/19 03:31:02;;;;;;;6.80;3.90;;;;;;;18.47;82.24;99947.94;5033024;28;20025;-79
2022/08/19 03:33:29;;;;;;;7.82;3.15;;;;;;;18.44;82.54;99950.72;5035644;28;20041;-80
2022/08/19 03:36:09;;;;;;;7.30;3.50;;;;;;;18.45;82.66;99946.78;5035551;28;20029;-80
2022/08/19 03:38:42;;;;;;;7.32;3.88;;;;;;;18.70;81.66;99953.16;5035251;28;20032;-80
2022/08/19 03:41:11;;;;;;;7.40;3.33;;;;;;;18.67;81.30;99945.66;5035125;28;20079;-80
2022/08/19 03:43:38;;;;;;;6.97;4.07;;;;;;;18.54;82.40;99947.97;5017706;28;20411;-80
2022/08/19 03:46:07;;;;;;;8.45;4.55;;;;;;;18.37;83.13;99947.94;5035264;28;20040;-79
2022/08/19 03:48:33;;;;;;;11.38;5.00;;;;;;;18.41;82.75;99940.47;5035172;28;20112;-79
2022/08/19 03:51:00;;;;;;;8.50;4.18;;;;;;;18.36;82.99;99943.63;5035295;28;20040;-79
2022/08/19 03:53:27;;;;;;;7.05;3.72;;;;;;;18.47;82.63;99942.44;5035256;28;20038;-79
2022/08/19 03:55:54;;;;;;;10.07;4.30;;;;;;;18.70;81.61;99944.88;5035164;28;20041;-79
2022/08/19 03:58:20;;;;;;;6.47;3.75;;;;;;;18.61;82.08;99949.94;5034900;28;20084;-80
2022/08/19 04:00:45;;;;;;;6.65;3.78;;;;;;;18.85;80.74;99956.69;5035215;28;20547;-79
2022/08/19 04:03:10;;;;;;;7.78;4.32;;;;;;;18.64;81.30;99949.19;5034824;28;20037;-78
2022/08/19 04:05:37;;;;;;;6.75;4.40;;;;;;;18.39;82.92;99954.66;5035178;28;20030;-78
2022/08/19 04:08:05;;;;;;;9.73;4.78;;;;;;;18.43;82.64;99957.41;5035106;28;20075;-78
2022/08/19 04:10:35;;;;;;;8.55;4.75;;;;;;;18.29;82.83;99967.22;5034660;28;20116;-79
2022/08/19 04:13:00;;;;;;;7.20;4.35;;;;;;;18.36;82.84;99949.91;5034728;28;20087;-79
2022/08/19 04:15:25;;;;;;;11.23;5.00;;;;;;;18.61;82.10;99945.22;5034934;28;20411;-78
2022/08/19 04:17:51;;;;;;;11.35;5.65;;;;;;;18.70;81.66;99949.59;5034697;28;20536;-78
2022/08/19 04:20:16;;;;;;;10.43;4.95;;;;;;;18.39;82.84;99951.09;5034835;28;20025;-79
2022/08/19 04:22:42;;;;;;;11.27;5.78;;;;;;;18.30;82.96;99957.75;5034821;28;20041;-80
2022/08/19 04:25:08;;;;;;;9.43;5.47;;;;;;;18.24;83.26;99966.81;5034410;28;20136;-79
2022/08/19 04:27:33;;;;;;;11.27;5.68;;;;;;;17.96;85.23;99960.03;5016840;28;20540;-79
2022/08/19 04:29:59;;;;;;;9.50;5.38;;;;;;;17.81;86.29;99963.16;5034314;28;20036;-79
2022/08/19 04:32:24;;;;;;;11.20;6.30;;;;;;;17.81;86.40;99958.44;5016463;28;20124;-80
2022/08/19 04:34:49;;;;;;;10.95;6.00;;;;;;;17.81;86.42;99963.94;5035040;28;20044;-81
2022/08/19 04:37:15;;;;;;;11.60;6.07;;;;;;;17.89;86.19;99959.22;5035715;28;20105;-81
2022/08/19 04:42:39;;;;;;;12.98;6.28;;;;;;;17.96;85.53;99965.53;5033472;28;20087;-81
2022/08/19 04:45:09;;;;;;;11.40;6.57;;;;;;;17.92;86.25;99974.97;5034499;28;20030;-82
2022/08/19 04:47:36;;;;;;;12.50;6.50;;;;;;;17.95;85.78;99972.22;5034050;28;20108;-81
2022/08/19 04:50:02;;;;;;;11.48;6.30;;;;;;;17.91;86.02;99979.69;5034203;28;20051;-81
2022/08/19 04:52:31;;;;;;;13.30;6.80;;;;;;;17.96;86.06;99965.53;5033606;28;20069;-81
2022/08/19 04:54:57;;;;;;;13.38;7.20;;;;;;;18.01;86.08;99976.22;5033435;28;20041;-79
2022/08/19 04:57:23;;;;;;;12.30;6.80;;;;;;;17.95;86.16;99985.22;5033618;28;20038;-80
2022/08/19 04:59:49;;;;;;;13.02;6.80;;;;;;;18.33;84.37;99984.56;5033479;28;20022;-80
2022/08/19 05:02:14;;;;;;;;;;;;;;;18.71;82.01;99982.28;5034012;28;20029;-79
2022/08/19 05:04:40;;;;;;;8.63;4.82;;;;;;;18.60;81.86;99981.44;5033019;28;19917;-79
2022/08/19 05:07:05;;;;;;;;;;;;;;;18.45;82.32;99988.91;5034026;28;20029;-79
2022/08/19 05:09:31;;;;;;;9.55;4.65;;;;;;;18.34;82.81;99991.66;5032981;28;19978;-79
2022/08/19 05:11:56;;;;;;;;;;;;;;;18.21;83.49;99998.69;5033913;28;20411;-80
2022/08/19 05:14:22;;;;;;;8.80;4.68;;;;;;;18.04;84.03;99996.66;5033175;28;19999;-77
2022/08/19 05:16:48;;;;;;;9.32;4.82;;;;;;;17.96;84.67;99995.84;5033259;28;20057;-78
2022/08/19 05:24:42;;;;;;;11.27;5.00;;;;;;;17.97;84.95;100007.66;5032803;28;20088;-79
2022/08/19 05:27:08;;;;;;;11.18;5.32;;;;;;;17.97;84.81;100002.13;5033158;28;20041;-79
2022/08/19 05:29:34;;;;;;;10.45;5.18;;;;;;;17.99;84.86;100005.31;5033329;28;20030;-80
2022/08/19 05:32:00;;;;;;;8.20;4.88;;;;;;;18.01;84.89;100005.72;5033695;28;20049;-79
2022/08/19 05:34:26;;;;;;;13.20;5.93;;;;;;;18.09;84.34;100007.31;5015902;28;20029;-80
2022/08/19 05:36:57;;;;;;;9.60;4.85;;;;;;;18.12;84.34;100016.75;5014594;28;20026;-80
2022/08/19 05:39:26;;;;;;;9.63;5.95;;;;;;;18.13;84.57;100019.13;5032676;28;20037;-80
2022/08/19 05:42:30;;;;;;;10.60;5.47;;;;;;;18.12;84.82;100012.03;5032944;28;20025;-81
2022/08/19 05:44:56;;;;;;;8.75;5.03;;;;;;;18.15;85.34;100014.03;5017334;28;20065;-81
2022/08/19 05:47:21;;;;;;;9.77;5.97;;;;;;;18.27;84.80;100010.13;5033131;28;20039;-81
2022/08/19 05:49:49;;;;;;;10.63;5.53;;;;;;;18.30;84.14;100012.88;5032672;28;20508;-80
2022/08/19 05:52:15;;;;;;;11.63;6.45;;;;;;;18.42;85.04;100019.22;5014882;28;20069;-82
2022/08/19 05:54:42;;;;;;;17.58;8.10;;;;;;;18.43;84.35;100016.09;5031673;28;20432;-82
2022/08/19 05:57:08;;;;;;;12.80;7.18;;;;;;;18.58;83.79;100016.91;5015090;28;20033;-81
2022/08/19 05:59:35;;;;;;;12.63;6.60;;;;;;;18.61;83.88;100021.63;5032523;28;20030;-80
2022/08/19 06:02:02;;;;;;;14.63;7.60;;;;;;;18.71;83.18;100011.84;5032220;28;20064;-80
2022/08/19 06:04:27;;;;;;;11.60;6.18;;;;;;;18.90;82.62;99995.69;5032027;28;20056;-80
2022/08/19 06:06:54;;;;;;;14.23;7.50;;;;;;;18.89;82.38;99991.38;5032154;28;20441;-80
2022/08/19 06:09:21;;;;;;;15.00;8.25;;;;;;;18.99;82.97;99994.53;5032076;28;20035;-81
2022/08/19 06:11:53;;;;;;;15.60;7.28;;;;;;;18.91;83.49;99999.25;5031821;28;20361;-80
2022/08/19 06:14:21;;;;;;;14.52;8.32;;;;;;;19.04;82.57;100003.19;5032691;28;20487;-81
2022/08/19 06:16:46;;;;;;;15.52;8.77;;;;;;;19.13;82.38;100005.53;5032087;28;20366;-80
2022/08/19 06:19:17;;;;;;;15.48;8.43;;;;;;;19.27;82.29;99999.22;5031929;28;20059;-79
2022/08/19 06:21:46;;;;;;;14.85;8.80;;;;;;;19.31;82.59;100003.56;5031612;28;20044;-79
2022/08/19 06:24:13;;;;;;;18.00;9.60;;;;;;;19.36;81.71;100005.16;5031942;28;20029;-78
2022/08/19 06:26:43;;;;;;;15.43;9.70;;;;;;;19.28;82.16;100000.81;5032072;28;20040;-79
2022/08/19 06:29:11;;;;;;;19.08;9.60;;;;;;;19.31;82.39;100009.06;5031653;28;20047;-81
2022/08/19 06:31:36;;;;;;;19.13;9.65;;;;;;;19.15;82.95;100011.47;5031831;28;20445;-79
2022/08/19 06:34:04;;;;;;;18.88;10.52;;;;;;;19.08;83.39;100011.47;5031970;28;20029;-79
2022/08/19 06:36:33;;;;;;;19.15;10.95;;;;;;;18.99;84.13;100011.88;5032123;28;20045;-79
2022/08/19 06:39:08;;;;;;;17.65;9.85;;;;;;;19.08;83.82;100005.94;5031667;28;20056;-78
2022/08/19 06:41:36;;;;;;;21.02;10.15;;;;;;;19.17;83.15;100009.13;5031578;28;20057;-78
2022/08/19 06:44:03;;;;;;;19.67;10.13;;;;;;;19.23;82.65;100004.75;5031715;28;20041;-79
2022/08/19 06:46:28;;;;;;;20.95;10.90;;;;;;;19.03;83.55;100001.63;5031517;28;20443;-79
2022/08/19 06:48:54;;;;;;;19.70;11.18;;;;;;;18.97;83.95;100005.94;5031418;28;20129;-78
2022/08/19 06:51:21;;;;;;;20.45;10.88;;;;;;;19.00;84.21;100013.44;5031781;28;20052;-78
2022/08/19 06:53:48;;;;;;;19.58;10.05;;;;;;;19.05;83.90;100012.25;5031567;28;20519;-79
2022/08/19 06:56:16;;;;;;;24.15;12.52;;;;;;;19.01;83.89;100014.25;5031584;28;20090;-80
2022/08/19 06:58:41;;;;;;;20.73;11.18;;;;;;;19.08;83.39;100015.00;5031796;28;20091;-80
2022/08/19 07:01:08;;;;;;;20.60;11.35;;;;;;;19.15;83.30;100008.72;5032737;28;20033;-79
2022/08/19 07:03:36;;;;;;;24.25;13.05;;;;;;;19.39;82.23;100005.13;5033911;28;20050;-82
2022/08/19 07:06:07;;;;;;;19.10;10.43;;;;;;;19.72;80.98;100006.69;5033567;28;20072;-84
2022/08/19 07:08:33;;;;;;;20.88;11.75;;;;;;;19.85;80.58;100009.00;5036131;28;20108;-82
2022/08/19 07:10:59;;;;;;;22.80;11.52;;;;;;;19.82;80.69;100005.06;5017643;28;20030;-80
2022/08/19 07:13:25;;;;;;;19.77;10.00;;;;;;;19.85;79.94;100001.50;5035055;28;20070;-81
2022/08/19 07:15:51;;;;;;;18.90;11.05;;;;;;;19.92;79.75;100012.53;5035044;28;20329;-79
2022/08/19 07:18:20;;;;;;;22.23;11.70;;;;;;;19.91;79.83;100001.88;5035287;28;20033;-80
2022/08/19 07:20:46;;;;;;;18.17;9.88;;;;;;;19.63;80.58;100011.03;5035403;28;20037;-81
2022/08/19 07:23:12;;;;;;;20.63;10.77;;;;;;;19.78;80.29;100021.66;5035262;28;20037;-80
2022/08/19 07:25:38;;;;;;;20.70;11.27;;;;;;;19.63;80.77;100019.31;5034877;28;20091;-76
2022/08/19 07:28:04;;;;;;;19.90;11.18;;;;;;;19.69;80.99;100015.75;5034827;28;20033;-77
2022/08/19 07:30:30;;;;;;;19.60;10.88;;;;;;;19.74;80.95;100029.16;5034999;28;20067;-78
2022/08/19 07:32:56;;;;;;;19.85;10.52;;;;;;;19.88;80.63;100033.06;5034909;28;20029;-77
2022/08/19 07:35:23;;;;;;;17.73;10.18;;;;;;;19.83;80.64;100034.28;5035479;28;20037;-80
2022/08/19 07:37:49;;;;;;;17.42;9.90;;;;;;;19.85;80.54;100039.41;5016876;28;20037;-85
2022/08/19 07:40:14;;;;;;;20.02;12.20;;;;;;;19.70;81.40;100049.69;5034335;28;20037;-78
2022/08/19 07:42:41;;;;;;;20.02;11.60;;;;;;;19.66;81.55;100046.16;5035151;28;20040;-80
2022/08/19 07:45:07;;;;;;;23.10;13.00;;;;;;;19.57;82.12;100054.84;5034796;28;20112;-79
2022/08/19 07:47:32;;;;;;;24.35;13.65;;;;;;;19.56;82.18;100061.56;5034421;28;20143;-79
2022/08/19 07:49:58;;;;;;;23.85;12.20;;;;;;;19.50;81.90;100063.91;5034585;28;20500;-78
2022/08/19 07:52:23;;;;;;;22.85;13.23;;;;;;;19.59;82.06;100059.97;5035054;28;20405;-78
2022/08/19 07:54:49;;;;;;;20.33;11.70;;;;;;;19.64;81.79;100065.88;5034662;28;20128;-77
2022/08/19 07:57:15;;;;;;;23.58;13.52;;;;;;;19.82;81.28;100061.13;5034591;28;20094;-80
2022/08/19 07:59:40;;;;;;;24.88;14.00;;;;;;;19.60;82.21;100067.84;5034710;28;20440;-78
2022/08/19 08:02:06;;;;;;;26.40;14.02;;;;;;;19.80;81.59;100073.72;5034610;28;20033;-77
2022/08/19 08:10:01;;;;;;;24.00;13.10;;;;;;;20.09;80.62;100078.00;5034481;28;20091;-78
2022/08/19 08:12:34;;;;;;;24.58;13.82;;;;;;;20.24;80.05;100080.72;5034972;28;20037;-78
2022/08/19 08:15:05;;;;;;;23.42;13.18;;;;;;;20.35;79.96;100084.25;5034887;28;20087;-78
2022/08/19 08:17:32;;;;;;;25.50;13.50;;;;;;;20.49;78.97;100078.69;5035296;28;20116;-77
2022/08/19 08:19:57;;;;;;;27.17;14.40;;;;;;;20.68;78.49;100075.41;5033977;28;20084;-78
2022/08/19 08:25:19;;;;;;;20.98;12.55;;;;;;;21.21;76.60;100084.53;5014454;28;20053;-78
2022/08/19 08:27:45;;;;;;;20.33;12.00;;;;;;;21.47;75.92;100078.41;5034162;28;20029;-78
2022/08/19 08:30:23;;;;;;;29.02;15.07;;;;;;;21.42;74.90;100076.09;5016519;28;20028;-79
2022/08/19 08:32:50;;;;;;;23.73;13.02;;;;;;;21.67;74.41;100075.88;5033805;28;20480;-79
2022/08/19 08:35:18;;;;;;;23.33;13.63;;;;;;;21.80;74.45;100078.88;5015958;28;20464;-77
2022/08/19 08:37:45;;;;;;;29.17;13.07;;;;;;;22.00;73.31;100079.06;5033583;28;20437;-79
2022/08/19 08:40:21;;;;;;;21.95;12.88;;;;;;;21.76;73.63;100076.16;5034073;28;20364;-78
2022/08/19 08:43:00;;;;;;;22.88;12.40;;;;;;;21.85;72.90;100079.25;5034310;28;20032;-77
2022/08/19 08:45:26;;;;;;;18.75;10.75;;;;;;;21.74;71.58;100081.31;5033340;28;20037;-80
2022/08/19 08:47:55;;;;;;;16.90;9.98;;;;;;;21.72;72.08;100083.72;5034354;28;20033;-82
2022/08/19 08:50:35;;;;;;;18.70;9.82;;;;;;;21.77;70.43;100080.50;5034861;28;20053;-83
2022/08/19 08:53:03;;;;;;;14.60;7.85;;;;;;;21.95;69.56;100082.31;5037404;28;20096;-83
2022/08/19 08:55:29;;;;;;;20.38;9.82;;;;;;;22.04;69.41;100077.06;5038268;28;20049;-82
2022/08/19 08:58:05;;;;;;;17.48;8.95;;;;;;;22.30;68.97;100073.59;5039645;28;20105;-82
2022/08/19 09:00:38;;;;;;;14.55;8.80;;;;;;;22.64;67.83;100081.09;5039378;28;20052;-82
2022/08/19 09:03:09;;;;;;;13.13;7.28;;;;;;;22.73;66.17;100084.94;5038080;28;20037;-84
2022/08/19 09:05:48;;;;;;;17.40;8.77;;;;;;;22.74;65.99;100083.72;5041985;28;20503;-81
2022/08/19 09:08:31;;;;;;;15.95;8.82;;;;;;;22.52;67.00;100076.91;5024066;28;20125;-84
2022/08/19 09:10:57;;;;;;;14.05;8.05;;;;;;;22.44;66.50;100073.41;5039738;28;20041;-82
2022/08/19 09:13:34;;;;;;;14.38;7.00;;;;;;;22.35;66.60;100073.16;5040698;28;20188;-86
2022/08/19 09:16:14;;;;;;;12.55;7.03;;;;;;;22.60;66.43;100077.56;5037363;28;20029;-80
2022/08/19 09:18:44;;;;;;;12.05;6.85;;;;;;;22.73;65.54;100073.81;5034450;28;20025;-79
2022/08/19 09:21:10;;;;;;;15.02;6.75;;;;;;;22.77;65.97;100073.78;5033694;28;20029;-78
2022/08/19 09:23:36;;;;;;;13.25;7.22;;;;;;;22.34;66.38;100073.53;5016300;28;20358;-75
2022/08/19 09:26:13;;;;;;;12.07;7.18;;;;;;;22.59;65.74;100084.34;5033049;28;20033;-77
2022/08/19 09:28:43;;;;;;;12.57;7.68;;;;;;;22.62;65.11;100073.19;5032778;28;20043;-78
2022/08/19 09:31:10;;;;;;;12.95;7.25;;;;;;;22.62;64.39;100070.41;5033612;28;20037;-79
2022/08/19 09:33:35;;;;;;;11.82;7.07;;;;;;;22.90;63.60;100080.34;5016117;28;20091;-80
2022/08/19 09:36:09;;;;;;;12.60;6.38;;;;;;;23.02;63.27;100079.00;5033479;28;20452;-80
2022/08/19 09:38:36;;;;;;;12.63;6.30;;;;;;;23.07;63.14;100070.19;5033431;28;20465;-78
2022/08/19 09:41:07;;;;;;;13.73;6.45;;;;;;;22.97;62.46;100071.13;5033095;28;20048;-81
2022/08/19 09:43:36;;;;;;;14.85;6.85;;;;;;;23.02;61.90;100079.78;5032889;28;20030;-79
2022/08/19 09:46:06;;;;;;;9.98;5.25;;;;;;;23.07;62.49;100073.75;5032897;28;20036;-79
2022/08/19 09:48:35;;;;;;;8.38;5.13;;;;;;;22.98;60.73;100078.25;5032131;28;20036;-80
2022/08/19 09:51:09;;;;;;;9.25;5.47;;;;;;;23.24;60.78;100083.00;5032421;28;20033;-78
2022/08/19 09:53:35;;;;;;;9.07;4.88;;;;;;;23.38;60.66;100077.22;5031929;28;20032;-79
2022/08/19 09:56:02;;;;;;;10.50;6.00;;;;;;;23.33;61.08;100065.78;5032041;28;20025;-79
2022/08/19 09:58:30;;;;;;;11.40;6.70;;;;;;;23.39;60.80;100067.66;5032279;28;20174;-79
2022/08/19 10:00:58;;;;;;;10.35;5.60;;;;;;;23.55;60.56;100058.66;5032212;28;20183;-78
2022/08/19 10:03:24;;;;;;;13.20;7.18;;;;;;;23.56;60.11;100074.13;5032067;28;20033;-80
2022/08/19 10:05:50;;;;;;;14.52;7.88;;;;;;;23.23;60.44;100066.75;5032037;28;20092;-77
2022/08/19 10:08:19;;;;;;;12.63;7.00;;;;;;;23.23;61.02;100058.44;5032583;28;20060;-81
2022/08/19 10:10:45;;;;;;;12.00;6.57;;;;;;;23.35;61.01;100058.63;5032186;28;20041;-80
2022/08/19 10:13:12;;;;;;;12.77;6.70;;;;;;;23.63;60.44;100067.66;5032610;28;20029;-78
2022/08/19 10:15:39;;;;;;;15.52;8.32;;;;;;;23.38;60.35;100065.31;5032038;28;20021;-79
2022/08/19 10:18:05;;;;;;;15.45;7.82;;;;;;;23.39;60.33;100064.88;5032385;28;20053;-83
2022/08/19 10:20:31;;;;;;;12.85;6.97;;;;;;;23.59;60.51;100064.19;5032113;28;20029;-79
2022/08/19 10:22:56;;;;;;;11.15;6.15;;;;;;;23.78;59.88;100062.63;5032494;28;20037;-79
2022/08/19 10:25:21;;;;;;;15.60;7.72;;;;;;;23.78;59.34;100059.88;5032307;28;20380;-81
2022/08/19 10:27:47;;;;;;;15.73;8.48;;;;;;;23.44;59.95;100063.63;5032309;28;20388;-80
2022/08/19 10:30:13;;;;;;;14.40;8.20;;;;;;;23.39;60.17;100066.88;5032222;28;20108;-80
2022/08/19 10:32:38;;;;;;;14.13;7.93;;;;;;;23.65;59.66;100057.69;5032462;28;20065;-78
2022/08/19 10:35:07;;;;;;;13.98;7.30;;;;;;;23.79;59.55;100053.09;5031584;28;20045;-78
2022/08/19 10:37:34;;;;;;;12.40;7.07;;;;;;;23.91;59.42;100044.91;5032092;28;20141;-78
2022/08/19 10:40:01;;;;;;;13.82;8.13;;;;;;;23.96;59.64;100041.63;5031641;28;20033;-79
2022/08/19 10:42:26;;;;;;;15.15;6.82;;;;;;;24.05;59.84;100048.63;5031382;28;20044;-79
2022/08/19 10:44:55;;;;;;;15.13;7.10;;;;;;;24.03;58.97;100037.94;5031675;28;20034;-79
2022/08/19 10:47:22;;;;;;;17.50;9.27;;;;;;;23.92;57.96;100056.81;5032252;28;20059;-79
2022/08/19 10:52:36;;;;;;;13.90;7.03;;;;;;;24.54;55.87;100044.03;5031827;28;20108;-79
2022/08/19 10:57:48;;;;;;;15.85;7.78;;;;;;;23.99;58.06;100051.09;5031720;28;20056;-79
2022/08/19 11:00:14;;;;;;;15.48;8.90;;;;;;;23.60;57.71;100044.28;5031264;28;20037;-78
2022/08/19 11:02:40;;;;;;;14.85;8.55;;;;;;;23.63;58.11;100051.78;5031824;28;20104;-79
2022/08/19 11:05:06;;;;;;;15.50;8.80;;;;;;;23.60;58.60;100058.19;5014141;28;20228;-80
2022/08/19 11:07:32;;;;;;;12.70;7.32;;;;;;;23.94;58.00;100048.81;5031754;28;20034;-80
2022/08/19 11:09:58;;;;;;;12.93;7.55;;;;;;;24.20;57.58;100056.25;5031578;28;20178;-80
2022/08/19 11:12:24;;;;;;;11.63;6.15;;;;;;;24.36;56.25;100052.78;5031891;28;20034;-80
2022/08/19 11:14:49;;;;;;;26.20;7.53;;;;;;;24.21;56.80;100057.81;5031495;28;20041;-80
2022/08/19 11:17:15;;;;;;;14.85;8.30;;;;;;;23.88;56.15;100050.53;5014085;28;20387;-79
2022/08/19 11:19:42;;;;;;;12.25;6.95;;;;;;;24.01;56.73;100055.03;5014176;28;20034;-80
2022/08/19 11:22:09;;;;;;;15.05;7.63;;;;;;;23.83;57.38;100053.81;5031501;28;20079;-79
2022/08/19 11:24:35;;;;;;;14.75;8.07;;;;;;;23.69;57.35;100050.09;5031393;28;20049;-79
2022/08/19 11:27:04;;;;;;;11.60;6.95;;;;;;;24.04;57.31;100053.41;5032372;28;20043;-80
2022/08/19 11:29:31;;;;;;;14.57;7.68;;;;;;;23.93;56.43;100050.03;5031932;28;20079;-79
2022/08/19 11:31:56;;;;;;;16.48;9.43;;;;;;;23.58;57.74;100049.50;5032480;28;20059;-81
2022/08/19 11:34:27;;;;;;;13.77;8.20;;;;;;;23.56;57.60;100049.13;5031979;28;20053;-79
2022/08/19 11:36:54;;;;;;;12.02;6.93;;;;;;;23.75;57.73;100049.59;5032064;28;20097;-78
2022/08/19 11:39:21;;;;;;;12.43;6.63;;;;;;;23.85;56.36;100051.38;5013571;28;20368;-79
2022/08/19 11:41:48;;;;;;;10.80;5.90;;;;;;;24.03;57.23;100046.28;5031417;28;20021;-81
2022/08/19 11:44:14;;;;;;;10.15;5.57;;;;;;;24.39;54.72;100040.00;5031646;28;20052;-79
2022/08/19 11:46:41;;;;;;;10.40;5.53;;;;;;;24.68;53.96;100046.47;5031003;28;20421;-78
2022/08/19 11:49:09;;;;;;;9.32;5.78;;;;;;;24.74;52.41;100039.19;5030872;28;20492;-79